KRFD/RFD METAR and TAF weather

Enter ICAO airport designator
Station Type Date Time Source
KRFD METAR 2020/03/28 13:54 UTC NOAA

KRFD 281354Z 05010KT 10SM OVC007 08/07 A2973 RMK AO2 RAB18E33 SLP071 P0000 T00780067 $


Station Type Date Time Source
KRFD Decoded METAR 2020/03/28 13:54 UTC NOAA

GREATER ROCKFORD AIRPORT, IL, United States (KRFD) 42-12N 89-06W 221M
Mar 28, 2020 - 09:54 AM EDT / 2020.03.28 1354 UTC
Wind: from the NE (050 degrees) at 12 MPH (10 KT):0
Visibility: 10 mile(s):0
Sky conditions: overcast
Precipitation last hour: A trace
Temperature: 46.0 F (7.8 C)
Dew Point: 44.1 F (6.7 C)
Relative Humidity: 92%
Pressure (altimeter): 29.73 in. Hg (1006 hPa)
ob: KRFD 281354Z 05010KT 10SM OVC007 08/07 A2973 RMK AO2 RAB18E33 SLP071 P0000 T00780067
cycle: 14

Station Type Date Time Source
KRFD TAF 2020/03/28 12:24 UTC NOAA

TAF KRFD 281120Z 2812/2912 07010KT 5SM -SHRA BR OVC004
TEMPO 2812/2813 2SM TSRA BR SCT004 OVC010CB
FM281300 08010KT 5SM BR OVC005
FM281800 11012KT 6SM -SHRA BR OVC005
FM282200 15012G17KT P6SM BKN006 OVC010
TEMPO 2822/2902 21020G35KT 1SM +TSRA BKN010 OVC020CB
FM290200 21015G25KT P6SM SCT015
FM290700 22020G32KT P6SM BKN020

Example: see airport list